sensor_id;sensor_type;location;lat;lon;timestamp;P1;durP1;ratioP1;P2;durP2;ratioP2
1410;SDS011;700;51.906;8.404;2023-02-28T00:00:11;6.17;;;4.20;;
1410;SDS011;700;51.906;8.404;2023-02-28T00:05:16;6.50;;;4.97;;
1410;SDS011;700;51.906;8.404;2023-02-28T00:10:20;8.33;;;6.00;;
1410;SDS011;700;51.906;8.404;2023-02-28T00:15:23;10.43;;;5.80;;
1410;SDS011;700;51.906;8.404;2023-02-28T00:20:26;6.80;;;4.57;;
1410;SDS011;700;51.906;8.404;2023-02-28T00:25:27;6.20;;;4.40;;
1410;SDS011;700;51.906;8.404;2023-02-28T00:30:28;5.90;;;3.53;;
1410;SDS011;700;51.906;8.404;2023-02-28T00:35:29;7.60;;;4.10;;
1410;SDS011;700;51.906;8.404;2023-02-28T00:40:29;4.43;;;3.80;;
1410;SDS011;700;51.906;8.404;2023-02-28T00:45:35;4.77;;;3.77;;
1410;SDS011;700;51.906;8.404;2023-02-28T00:50:35;7.40;;;4.43;;
1410;SDS011;700;51.906;8.404;2023-02-28T00:55:36;9.00;;;4.10;;
1410;SDS011;700;51.906;8.404;2023-02-28T01:00:39;7.30;;;4.03;;
1410;SDS011;700;51.906;8.404;2023-02-28T01:05:40;6.27;;;3.70;;
1410;SDS011;700;51.906;8.404;2023-02-28T01:10:41;8.30;;;4.87;;
1410;SDS011;700;51.906;8.404;2023-02-28T01:15:46;8.73;;;4.20;;
1410;SDS011;700;51.906;8.404;2023-02-28T01:20:51;8.63;;;3.97;;
1410;SDS011;700;51.906;8.404;2023-02-28T01:25:56;9.03;;;3.83;;
1410;SDS011;700;51.906;8.404;2023-02-28T01:30:56;6.73;;;4.00;;
1410;SDS011;700;51.906;8.404;2023-02-28T01:35:58;7.43;;;3.83;;
1410;SDS011;700;51.906;8.404;2023-02-28T01:41:03;4.30;;;3.43;;
1410;SDS011;700;51.906;8.404;2023-02-28T01:46:04;5.40;;;3.70;;
1410;SDS011;700;51.906;8.404;2023-02-28T01:51:17;6.30;;;4.00;;
1410;SDS011;700;51.906;8.404;2023-02-28T01:56:42;8.23;;;3.57;;
1410;SDS011;700;51.906;8.404;2023-02-28T02:01:48;7.00;;;4.00;;
1410;SDS011;700;51.906;8.404;2023-02-28T02:06:50;7.83;;;4.17;;
1410;SDS011;700;51.906;8.404;2023-02-28T02:11:51;7.17;;;4.00;;
1410;SDS011;700;51.906;8.404;2023-02-28T02:17:25;8.13;;;4.80;;
1410;SDS011;700;51.906;8.404;2023-02-28T02:43:46;6.60;;;3.17;;
1410;SDS011;700;51.906;8.404;2023-02-28T02:48:54;5.80;;;3.27;;
1410;SDS011;700;51.906;8.404;2023-02-28T02:54:07;4.50;;;3.03;;
1410;SDS011;700;51.906;8.404;2023-02-28T02:59:16;5.33;;;3.40;;
1410;SDS011;700;51.906;8.404;2023-02-28T03:04:22;5.83;;;3.43;;
1410;SDS011;700;51.906;8.404;2023-02-28T03:09:26;3.13;;;2.50;;
1410;SDS011;700;51.906;8.404;2023-02-28T03:30:15;4.60;;;2.80;;
1410;SDS011;700;51.906;8.404;2023-02-28T03:35:18;8.87;;;2.90;;
1410;SDS011;700;51.906;8.404;2023-02-28T03:40:23;4.67;;;3.30;;
1410;SDS011;700;51.906;8.404;2023-02-28T03:45:32;5.70;;;3.33;;
1410;SDS011;700;51.906;8.404;2023-02-28T03:55:47;8.07;;;2.90;;
1410;SDS011;700;51.906;8.404;2023-02-28T04:00:54;4.37;;;3.23;;
1410;SDS011;700;51.906;8.404;2023-02-28T04:06:08;7.03;;;3.73;;
1410;SDS011;700;51.906;8.404;2023-02-28T04:16:25;7.77;;;5.43;;
1410;SDS011;700;51.906;8.404;2023-02-28T04:21:26;9.17;;;4.87;;
1410;SDS011;700;51.906;8.404;2023-02-28T04:26:28;8.57;;;4.83;;
1410;SDS011;700;51.906;8.404;2023-02-28T04:31:35;5.10;;;3.77;;
1410;SDS011;700;51.906;8.404;2023-02-28T04:36:36;5.20;;;3.20;;
1410;SDS011;700;51.906;8.404;2023-02-28T04:41:42;3.70;;;2.77;;
1410;SDS011;700;51.906;8.404;2023-02-28T04:46:43;5.13;;;2.80;;
1410;SDS011;700;51.906;8.404;2023-02-28T04:51:46;4.07;;;3.60;;
1410;SDS011;700;51.906;8.404;2023-02-28T04:56:49;3.40;;;2.70;;
1410;SDS011;700;51.906;8.404;2023-02-28T05:01:52;4.53;;;3.17;;
1410;SDS011;700;51.906;8.404;2023-02-28T05:06:53;4.20;;;3.00;;
1410;SDS011;700;51.906;8.404;2023-02-28T05:11:55;5.60;;;3.73;;
1410;SDS011;700;51.906;8.404;2023-02-28T05:16:56;6.57;;;4.10;;
1410;SDS011;700;51.906;8.404;2023-02-28T05:21:59;4.97;;;4.10;;
1410;SDS011;700;51.906;8.404;2023-02-28T05:27:00;6.53;;;4.80;;
1410;SDS011;700;51.906;8.404;2023-02-28T05:32:01;8.20;;;7.17;;
1410;SDS011;700;51.906;8.404;2023-02-28T05:37:01;7.97;;;5.30;;
1410;SDS011;700;51.906;8.404;2023-02-28T05:42:02;8.87;;;6.03;;
1410;SDS011;700;51.906;8.404;2023-02-28T05:47:03;8.33;;;5.70;;
1410;SDS011;700;51.906;8.404;2023-02-28T05:52:06;18.63;;;9.33;;
1410;SDS011;700;51.906;8.404;2023-02-28T05:57:06;7.10;;;4.57;;
1410;SDS011;700;51.906;8.404;2023-02-28T06:02:13;6.67;;;5.00;;
1410;SDS011;700;51.906;8.404;2023-02-28T06:07:16;7.57;;;5.50;;
1410;SDS011;700;51.906;8.404;2023-02-28T06:12:17;7.20;;;5.00;;
1410;SDS011;700;51.906;8.404;2023-02-28T06:17:20;9.70;;;6.33;;
1410;SDS011;700;51.906;8.404;2023-02-28T06:22:21;7.93;;;6.27;;
1410;SDS011;700;51.906;8.404;2023-02-28T06:27:22;9.80;;;7.00;;
1410;SDS011;700;51.906;8.404;2023-02-28T06:32:22;7.53;;;6.10;;
1410;SDS011;700;51.906;8.404;2023-02-28T06:37:23;10.17;;;7.00;;
1410;SDS011;700;51.906;8.404;2023-02-28T06:42:26;9.90;;;6.60;;
1410;SDS011;700;51.906;8.404;2023-02-28T06:47:30;15.30;;;7.53;;
1410;SDS011;700;51.906;8.404;2023-02-28T06:52:36;14.17;;;7.43;;
1410;SDS011;700;51.906;8.404;2023-02-28T06:57:37;10.77;;;6.00;;
1410;SDS011;700;51.906;8.404;2023-02-28T07:02:41;11.90;;;6.80;;
1410;SDS011;700;51.906;8.404;2023-02-28T07:07:41;10.90;;;6.33;;
1410;SDS011;700;51.906;8.404;2023-02-28T07:12:44;10.70;;;5.90;;
1410;SDS011;700;51.906;8.404;2023-02-28T07:17:47;7.77;;;6.20;;
1410;SDS011;700;51.906;8.404;2023-02-28T07:22:48;7.50;;;5.67;;
1410;SDS011;700;51.906;8.404;2023-02-28T07:27:56;12.47;;;8.00;;
1410;SDS011;700;51.906;8.404;2023-02-28T07:32:59;12.27;;;7.83;;
1410;SDS011;700;51.906;8.404;2023-02-28T07:38:00;12.10;;;6.53;;
1410;SDS011;700;51.906;8.404;2023-02-28T07:43:03;9.23;;;5.90;;
1410;SDS011;700;51.906;8.404;2023-02-28T07:48:06;12.67;;;6.17;;
1410;SDS011;700;51.906;8.404;2023-02-28T07:53:09;8.23;;;5.20;;
1410;SDS011;700;51.906;8.404;2023-02-28T07:58:13;10.57;;;4.60;;
1410;SDS011;700;51.906;8.404;2023-02-28T08:03:16;10.10;;;4.20;;
1410;SDS011;700;51.906;8.404;2023-02-28T08:08:20;4.90;;;4.30;;
1410;SDS011;700;51.906;8.404;2023-02-28T08:13:25;4.65;;;3.40;;
1410;SDS011;700;51.906;8.404;2023-02-28T08:18:27;4.63;;;3.10;;
1410;SDS011;700;51.906;8.404;2023-02-28T08:23:27;5.00;;;3.20;;
1410;SDS011;700;51.906;8.404;2023-02-28T08:28:31;6.53;;;3.10;;
1410;SDS011;700;51.906;8.404;2023-02-28T08:33:32;3.63;;;2.70;;
1410;SDS011;700;51.906;8.404;2023-02-28T08:38:33;4.77;;;2.03;;
1410;SDS011;700;51.906;8.404;2023-02-28T08:43:35;3.40;;;1.63;;
1410;SDS011;700;51.906;8.404;2023-02-28T08:48:35;2.17;;;1.60;;
1410;SDS011;700;51.906;8.404;2023-02-28T08:53:38;2.97;;;1.80;;
1410;SDS011;700;51.906;8.404;2023-02-28T08:58:39;2.17;;;1.53;;
1410;SDS011;700;51.906;8.404;2023-02-28T09:03:40;2.47;;;1.70;;
1410;SDS011;700;51.906;8.404;2023-02-28T09:08:42;2.93;;;1.60;;
1410;SDS011;700;51.906;8.404;2023-02-28T09:13:43;3.70;;;1.53;;
1410;SDS011;700;51.906;8.404;2023-02-28T09:18:44;2.07;;;1.67;;
1410;SDS011;700;51.906;8.404;2023-02-28T09:23:45;2.77;;;1.60;;
1410;SDS011;700;51.906;8.404;2023-02-28T09:28:50;2.77;;;1.57;;
1410;SDS011;700;51.906;8.404;2023-02-28T09:33:54;2.70;;;1.60;;
1410;SDS011;700;51.906;8.404;2023-02-28T09:38:56;3.00;;;1.33;;
1410;SDS011;700;51.906;8.404;2023-02-28T09:43:59;2.40;;;1.50;;
1410;SDS011;700;51.906;8.404;2023-02-28T09:49:05;3.00;;;1.97;;
1410;SDS011;700;51.906;8.404;2023-02-28T09:54:32;3.43;;;1.77;;
1410;SDS011;700;51.906;8.404;2023-02-28T09:59:41;2.20;;;1.80;;
1410;SDS011;700;51.906;8.404;2023-02-28T10:05:02;4.13;;;1.80;;
1410;SDS011;700;51.906;8.404;2023-02-28T10:10:15;2.50;;;1.93;;
1410;SDS011;700;51.906;8.404;2023-02-28T10:15:22;4.75;;;2.08;;
1410;SDS011;700;51.906;8.404;2023-02-28T10:20:26;3.60;;;2.00;;
1410;SDS011;700;51.906;8.404;2023-02-28T10:25:31;2.40;;;1.80;;
1410;SDS011;700;51.906;8.404;2023-02-28T10:30:31;2.43;;;2.03;;
1410;SDS011;700;51.906;8.404;2023-02-28T10:35:34;3.63;;;2.27;;
1410;SDS011;700;51.906;8.404;2023-02-28T10:40:37;3.00;;;2.17;;
1410;SDS011;700;51.906;8.404;2023-02-28T10:50:55;2.10;;;1.60;;
1410;SDS011;700;51.906;8.404;2023-02-28T11:01:12;4.23;;;1.80;;
1410;SDS011;700;51.906;8.404;2023-02-28T11:06:20;4.63;;;1.80;;
1410;SDS011;700;51.906;8.404;2023-02-28T11:11:25;3.60;;;2.10;;
1410;SDS011;700;51.906;8.404;2023-02-28T11:16:32;2.90;;;2.20;;
1410;SDS011;700;51.906;8.404;2023-02-28T11:21:36;4.07;;;2.50;;
1410;SDS011;700;51.906;8.404;2023-02-28T11:26:41;3.00;;;1.70;;
1410;SDS011;700;51.906;8.404;2023-02-28T11:37:03;2.13;;;1.43;;
1410;SDS011;700;51.906;8.404;2023-02-28T11:47:42;2.70;;;1.50;;
1410;SDS011;700;51.906;8.404;2023-02-28T11:52:57;3.07;;;1.87;;
1410;SDS011;700;51.906;8.404;2023-02-28T11:58:24;3.53;;;2.10;;
1410;SDS011;700;51.906;8.404;2023-02-28T12:03:37;1.70;;;1.27;;
1410;SDS011;700;51.906;8.404;2023-02-28T12:29:49;3.83;;;1.60;;
1410;SDS011;700;51.906;8.404;2023-02-28T12:45:38;2.60;;;2.00;;
1410;SDS011;700;51.906;8.404;2023-02-28T12:50:48;3.23;;;2.30;;
1410;SDS011;700;51.906;8.404;2023-02-28T13:12:12;3.00;;;2.03;;
1410;SDS011;700;51.906;8.404;2023-02-28T13:17:23;3.80;;;2.33;;
1410;SDS011;700;51.906;8.404;2023-02-28T13:27:39;2.90;;;2.23;;
1410;SDS011;700;51.906;8.404;2023-02-28T13:32:42;6.90;;;2.37;;
1410;SDS011;700;51.906;8.404;2023-02-28T13:37:43;4.53;;;2.00;;
1410;SDS011;700;51.906;8.404;2023-02-28T13:42:49;3.50;;;2.70;;
1410;SDS011;700;51.906;8.404;2023-02-28T13:47:54;3.63;;;2.13;;
1410;SDS011;700;51.906;8.404;2023-02-28T14:08:59;2.47;;;1.90;;
1410;SDS011;700;51.906;8.404;2023-02-28T14:14:52;4.13;;;2.70;;
1410;SDS011;700;51.906;8.404;2023-02-28T14:19:36;2.20;;;2.00;;
1410;SDS011;700;51.906;8.404;2023-02-28T14:40:37;4.37;;;2.87;;
1410;SDS011;700;51.906;8.404;2023-02-28T14:45:40;4.03;;;2.70;;
1410;SDS011;700;51.906;8.404;2023-02-28T14:50:41;4.03;;;2.57;;
1410;SDS011;700;51.906;8.404;2023-02-28T14:55:55;3.10;;;2.30;;
1410;SDS011;700;51.906;8.404;2023-02-28T15:00:59;3.40;;;2.50;;
1410;SDS011;700;51.906;8.404;2023-02-28T15:06:06;5.13;;;2.60;;
1410;SDS011;700;51.906;8.404;2023-02-28T15:11:17;3.20;;;2.40;;
1410;SDS011;700;51.906;8.404;2023-02-28T15:21:32;4.17;;;3.40;;
1410;SDS011;700;51.906;8.404;2023-02-28T15:26:41;2.87;;;2.60;;
1410;SDS011;700;51.906;8.404;2023-02-28T15:42:27;4.93;;;2.60;;
1410;SDS011;700;51.906;8.404;2023-02-28T15:47:32;3.73;;;2.80;;
1410;SDS011;700;51.906;8.404;2023-02-28T15:57:40;6.50;;;4.00;;
1410;SDS011;700;51.906;8.404;2023-02-28T16:02:41;6.27;;;3.00;;
1410;SDS011;700;51.906;8.404;2023-02-28T16:07:42;3.80;;;2.90;;
1410;SDS011;700;51.906;8.404;2023-02-28T16:12:43;5.20;;;3.30;;
1410;SDS011;700;51.906;8.404;2023-02-28T16:17:44;4.60;;;2.73;;
1410;SDS011;700;51.906;8.404;2023-02-28T16:22:47;2.80;;;2.40;;
1410;SDS011;700;51.906;8.404;2023-02-28T16:27:52;3.50;;;2.50;;
1410;SDS011;700;51.906;8.404;2023-02-28T16:33:00;5.53;;;2.60;;
1410;SDS011;700;51.906;8.404;2023-02-28T16:38:00;4.20;;;3.37;;
1410;SDS011;700;51.906;8.404;2023-02-28T16:43:03;3.70;;;2.97;;
1410;SDS011;700;51.906;8.404;2023-02-28T16:48:13;6.03;;;2.97;;
1410;SDS011;700;51.906;8.404;2023-02-28T16:53:17;7.23;;;3.40;;
1410;SDS011;700;51.906;8.404;2023-02-28T16:58:20;5.20;;;3.97;;
1410;SDS011;700;51.906;8.404;2023-02-28T17:03:24;5.67;;;4.30;;
1410;SDS011;700;51.906;8.404;2023-02-28T17:08:27;7.23;;;4.50;;
1410;SDS011;700;51.906;8.404;2023-02-28T17:13:29;9.47;;;3.97;;
1410;SDS011;700;51.906;8.404;2023-02-28T17:18:30;9.50;;;5.43;;
1410;SDS011;700;51.906;8.404;2023-02-28T17:23:33;5.17;;;4.43;;
1410;SDS011;700;51.906;8.404;2023-02-28T17:28:36;7.67;;;4.07;;
1410;SDS011;700;51.906;8.404;2023-02-28T17:33:39;5.70;;;4.20;;
1410;SDS011;700;51.906;8.404;2023-02-28T17:38:43;7.53;;;5.50;;
1410;SDS011;700;51.906;8.404;2023-02-28T17:43:43;7.97;;;5.73;;
1410;SDS011;700;51.906;8.404;2023-02-28T17:48:50;9.03;;;5.67;;
1410;SDS011;700;51.906;8.404;2023-02-28T17:53:54;15.80;;;9.30;;
1410;SDS011;700;51.906;8.404;2023-02-28T17:58:59;9.00;;;6.43;;
1410;SDS011;700;51.906;8.404;2023-02-28T18:04:00;7.83;;;6.93;;
1410;SDS011;700;51.906;8.404;2023-02-28T18:09:02;10.00;;;6.60;;
1410;SDS011;700;51.906;8.404;2023-02-28T18:14:03;11.00;;;7.20;;
1410;SDS011;700;51.906;8.404;2023-02-28T18:19:09;10.63;;;6.60;;
1410;SDS011;700;51.906;8.404;2023-02-28T18:24:16;8.67;;;6.50;;
1410;SDS011;700;51.906;8.404;2023-02-28T18:29:22;9.93;;;6.90;;
1410;SDS011;700;51.906;8.404;2023-02-28T18:34:25;9.63;;;7.00;;
1410;SDS011;700;51.906;8.404;2023-02-28T18:39:25;8.47;;;5.40;;
1410;SDS011;700;51.906;8.404;2023-02-28T18:44:26;7.13;;;5.00;;
1410;SDS011;700;51.906;8.404;2023-02-28T18:49:32;9.23;;;5.90;;
1410;SDS011;700;51.906;8.404;2023-02-28T18:54:34;10.47;;;6.33;;
1410;SDS011;700;51.906;8.404;2023-02-28T18:59:35;8.90;;;5.13;;
1410;SDS011;700;51.906;8.404;2023-02-28T19:04:35;6.97;;;5.67;;
1410;SDS011;700;51.906;8.404;2023-02-28T19:09:39;7.90;;;6.03;;
1410;SDS011;700;51.906;8.404;2023-02-28T19:14:41;7.30;;;6.53;;
1410;SDS011;700;51.906;8.404;2023-02-28T19:19:42;10.40;;;6.70;;
1410;SDS011;700;51.906;8.404;2023-02-28T19:24:43;9.97;;;6.73;;
1410;SDS011;700;51.906;8.404;2023-02-28T19:29:51;9.47;;;6.23;;
1410;SDS011;700;51.906;8.404;2023-02-28T19:34:52;8.03;;;6.50;;
1410;SDS011;700;51.906;8.404;2023-02-28T19:39:52;7.07;;;5.43;;
1410;SDS011;700;51.906;8.404;2023-02-28T19:44:55;9.67;;;6.00;;
1410;SDS011;700;51.906;8.404;2023-02-28T19:49:56;7.37;;;5.40;;
1410;SDS011;700;51.906;8.404;2023-02-28T19:54:57;7.03;;;5.30;;
1410;SDS011;700;51.906;8.404;2023-02-28T20:00:00;6.20;;;5.30;;
1410;SDS011;700;51.906;8.404;2023-02-28T20:05:03;6.90;;;5.43;;
1410;SDS011;700;51.906;8.404;2023-02-28T20:10:04;11.80;;;7.77;;
1410;SDS011;700;51.906;8.404;2023-02-28T20:15:05;9.47;;;7.47;;
1410;SDS011;700;51.906;8.404;2023-02-28T20:20:06;7.53;;;6.00;;
1410;SDS011;700;51.906;8.404;2023-02-28T20:25:10;9.50;;;6.93;;
1410;SDS011;700;51.906;8.404;2023-02-28T20:30:11;9.40;;;7.67;;
1410;SDS011;700;51.906;8.404;2023-02-28T20:35:12;13.53;;;8.03;;
1410;SDS011;700;51.906;8.404;2023-02-28T20:40:14;12.73;;;8.77;;
1410;SDS011;700;51.906;8.404;2023-02-28T20:45:15;10.60;;;9.10;;
1410;SDS011;700;51.906;8.404;2023-02-28T20:50:16;10.23;;;7.97;;
1410;SDS011;700;51.906;8.404;2023-02-28T20:55:17;11.47;;;8.90;;
1410;SDS011;700;51.906;8.404;2023-02-28T21:00:20;11.33;;;7.90;;
1410;SDS011;700;51.906;8.404;2023-02-28T21:05:21;12.73;;;8.57;;
1410;SDS011;700;51.906;8.404;2023-02-28T21:10:23;10.17;;;8.77;;
1410;SDS011;700;51.906;8.404;2023-02-28T21:15:23;12.03;;;8.47;;
1410;SDS011;700;51.906;8.404;2023-02-28T21:20:24;9.57;;;8.50;;
1410;SDS011;700;51.906;8.404;2023-02-28T21:25:25;12.43;;;8.17;;
1410;SDS011;700;51.906;8.404;2023-02-28T21:30:25;10.63;;;8.33;;
1410;SDS011;700;51.906;8.404;2023-02-28T21:35:26;12.40;;;8.60;;
1410;SDS011;700;51.906;8.404;2023-02-28T21:40:27;17.70;;;9.70;;
1410;SDS011;700;51.906;8.404;2023-02-28T21:45:32;16.30;;;10.53;;
1410;SDS011;700;51.906;8.404;2023-02-28T21:50:33;11.63;;;8.10;;
1410;SDS011;700;51.906;8.404;2023-02-28T21:55:35;7.80;;;6.03;;
1410;SDS011;700;51.906;8.404;2023-02-28T22:00:36;12.67;;;7.20;;
1410;SDS011;700;51.906;8.404;2023-02-28T22:05:37;9.90;;;6.10;;
1410;SDS011;700;51.906;8.404;2023-02-28T22:10:37;8.47;;;6.57;;
1410;SDS011;700;51.906;8.404;2023-02-28T22:15:40;10.20;;;7.83;;
1410;SDS011;700;51.906;8.404;2023-02-28T22:20:41;12.20;;;7.23;;
1410;SDS011;700;51.906;8.404;2023-02-28T22:25:44;11.70;;;7.57;;
1410;SDS011;700;51.906;8.404;2023-02-28T22:30:49;10.30;;;7.70;;
1410;SDS011;700;51.906;8.404;2023-02-28T22:35:52;8.10;;;6.73;;
1410;SDS011;700;51.906;8.404;2023-02-28T22:40:58;7.47;;;6.60;;
1410;SDS011;700;51.906;8.404;2023-02-28T22:46:02;9.30;;;7.93;;
1410;SDS011;700;51.906;8.404;2023-02-28T22:51:06;14.93;;;9.57;;
1410;SDS011;700;51.906;8.404;2023-02-28T22:56:12;10.80;;;7.80;;
1410;SDS011;700;51.906;8.404;2023-02-28T23:01:14;8.53;;;6.87;;
1410;SDS011;700;51.906;8.404;2023-02-28T23:11:30;9.50;;;7.23;;
1410;SDS011;700;51.906;8.404;2023-02-28T23:16:34;7.67;;;6.30;;
1410;SDS011;700;51.906;8.404;2023-02-28T23:21:42;8.30;;;6.70;;
1410;SDS011;700;51.906;8.404;2023-02-28T23:26:45;9.00;;;6.70;;
1410;SDS011;700;51.906;8.404;2023-02-28T23:31:50;7.13;;;5.97;;
1410;SDS011;700;51.906;8.404;2023-02-28T23:36:51;10.13;;;7.40;;
1410;SDS011;700;51.906;8.404;2023-02-28T23:41:53;11.73;;;8.50;;
1410;SDS011;700;51.906;8.404;2023-02-28T23:46:55;11.23;;;7.90;;
1410;SDS011;700;51.906;8.404;2023-02-28T23:51:55;10.03;;;7.90;;
1410;SDS011;700;51.906;8.404;2023-02-28T23:56:56;10.53;;;7.70;;
